sensor_id;sensor_type;location;lat;lon;timestamp;P1;durP1;ratioP1;P2;durP2;ratioP2
37657;SDS011;23500;53.268;8.308;2023-02-16T00:00:18;6.55;;;5.95;;
37657;SDS011;23500;53.268;8.308;2023-02-16T00:02:46;6.35;;;5.75;;
37657;SDS011;23500;53.268;8.308;2023-02-16T00:05:31;6.43;;;5.50;;
37657;SDS011;23500;53.268;8.308;2023-02-16T00:07:59;6.32;;;5.75;;
37657;SDS011;23500;53.268;8.308;2023-02-16T00:10:26;6.50;;;5.88;;
37657;SDS011;23500;53.268;8.308;2023-02-16T00:12:56;6.90;;;6.30;;
37657;SDS011;23500;53.268;8.308;2023-02-16T00:15:40;6.95;;;6.25;;
37657;SDS011;23500;53.268;8.308;2023-02-16T00:18:13;6.18;;;5.68;;
37657;SDS011;23500;53.268;8.308;2023-02-16T00:20:41;5.90;;;5.40;;
37657;SDS011;23500;53.268;8.308;2023-02-16T00:23:07;6.20;;;5.70;;
37657;SDS011;23500;53.268;8.308;2023-02-16T00:25:33;6.57;;;6.05;;
37657;SDS011;23500;53.268;8.308;2023-02-16T00:28:00;7.05;;;6.13;;
37657;SDS011;23500;53.268;8.308;2023-02-16T00:30:28;5.80;;;5.30;;
37657;SDS011;23500;53.268;8.308;2023-02-16T00:32:54;6.28;;;5.72;;
37657;SDS011;23500;53.268;8.308;2023-02-16T00:35:20;5.80;;;5.30;;
37657;SDS011;23500;53.268;8.308;2023-02-16T00:37:46;6.10;;;5.60;;
37657;SDS011;23500;53.268;8.308;2023-02-16T00:40:14;6.03;;;5.53;;
37657;SDS011;23500;53.268;8.308;2023-02-16T00:42:41;7.03;;;6.38;;
37657;SDS011;23500;53.268;8.308;2023-02-16T00:45:17;6.18;;;5.57;;
37657;SDS011;23500;53.268;8.308;2023-02-16T00:47:44;6.70;;;6.10;;
37657;SDS011;23500;53.268;8.308;2023-02-16T00:50:19;5.85;;;5.35;;
37657;SDS011;23500;53.268;8.308;2023-02-16T00:52:58;6.40;;;5.80;;
37657;SDS011;23500;53.268;8.308;2023-02-16T00:55:28;6.25;;;5.75;;
37657;SDS011;23500;53.268;8.308;2023-02-16T01:00:39;6.47;;;5.88;;
37657;SDS011;23500;53.268;8.308;2023-02-16T01:03:10;6.18;;;5.68;;
37657;SDS011;23500;53.268;8.308;2023-02-16T01:05:38;5.88;;;5.38;;
37657;SDS011;23500;53.268;8.308;2023-02-16T01:08:11;6.30;;;5.70;;
37657;SDS011;23500;53.268;8.308;2023-02-16T01:10:56;6.18;;;5.57;;
37657;SDS011;23500;53.268;8.308;2023-02-16T01:13:24;5.50;;;5.10;;
37657;SDS011;23500;53.268;8.308;2023-02-16T01:15:52;6.50;;;5.93;;
37657;SDS011;23500;53.268;8.308;2023-02-16T01:18:18;6.05;;;5.45;;
37657;SDS011;23500;53.268;8.308;2023-02-16T01:20:45;5.63;;;5.13;;
37657;SDS011;23500;53.268;8.308;2023-02-16T01:23:11;6.00;;;5.50;;
37657;SDS011;23500;53.268;8.308;2023-02-16T01:25:37;5.80;;;5.35;;
37657;SDS011;23500;53.268;8.308;2023-02-16T01:28:20;5.97;;;5.40;;
37657;SDS011;23500;53.268;8.308;2023-02-16T01:30:48;5.75;;;5.25;;
37657;SDS011;23500;53.268;8.308;2023-02-16T01:33:14;6.40;;;5.80;;
37657;SDS011;23500;53.268;8.308;2023-02-16T01:35:39;5.97;;;5.47;;
37657;SDS011;23500;53.268;8.308;2023-02-16T01:38:05;5.78;;;5.28;;
37657;SDS011;23500;53.268;8.308;2023-02-16T01:43:09;5.93;;;5.43;;
37657;SDS011;23500;53.268;8.308;2023-02-16T01:45:45;6.07;;;5.57;;
37657;SDS011;23500;53.268;8.308;2023-02-16T01:48:19;5.88;;;5.38;;
37657;SDS011;23500;53.268;8.308;2023-02-16T01:50:51;5.72;;;5.22;;
37657;SDS011;23500;53.268;8.308;2023-02-16T01:53:35;5.88;;;5.32;;
37657;SDS011;23500;53.268;8.308;2023-02-16T01:56:09;5.93;;;5.43;;
37657;SDS011;23500;53.268;8.308;2023-02-16T01:58:44;6.03;;;5.53;;
37657;SDS011;23500;53.268;8.308;2023-02-16T02:04:39;5.88;;;5.28;;
37657;SDS011;23500;53.268;8.308;2023-02-16T02:13:18;5.75;;;5.25;;
37657;SDS011;23500;53.268;8.308;2023-02-16T02:15:53;5.85;;;5.22;;
37657;SDS011;23500;53.268;8.308;2023-02-16T02:18:20;5.00;;;4.60;;
37657;SDS011;23500;53.268;8.308;2023-02-16T02:34:57;5.80;;;5.30;;
37657;SDS011;23500;53.268;8.308;2023-02-16T02:38:36;6.03;;;5.53;;
37657;SDS011;23500;53.268;8.308;2023-02-16T02:46:07;5.75;;;5.25;;
37657;SDS011;23500;53.268;8.308;2023-02-16T02:48:41;5.63;;;5.13;;
37657;SDS011;23500;53.268;8.308;2023-02-16T02:53:53;5.63;;;5.13;;
37657;SDS011;23500;53.268;8.308;2023-02-16T02:59:57;5.30;;;4.90;;
37657;SDS011;23500;53.268;8.308;2023-02-16T03:02:50;5.43;;;4.93;;
37657;SDS011;23500;53.268;8.308;2023-02-16T03:05:20;5.75;;;5.25;;
37657;SDS011;23500;53.268;8.308;2023-02-16T03:07:48;5.20;;;4.70;;
37657;SDS011;23500;53.268;8.308;2023-02-16T03:10:21;5.53;;;5.03;;
37657;SDS011;23500;53.268;8.308;2023-02-16T03:13:11;5.57;;;5.07;;
37657;SDS011;23500;53.268;8.308;2023-02-16T03:15:49;5.00;;;4.60;;
37657;SDS011;23500;53.268;8.308;2023-02-16T03:18:20;6.18;;;5.57;;
37657;SDS011;23500;53.268;8.308;2023-02-16T03:21:08;5.32;;;4.82;;
37657;SDS011;23500;53.268;8.308;2023-02-16T03:23:55;5.20;;;4.70;;
37657;SDS011;23500;53.268;8.308;2023-02-16T03:26:40;5.60;;;5.10;;
37657;SDS011;23500;53.268;8.308;2023-02-16T03:29:26;5.10;;;4.70;;
37657;SDS011;23500;53.268;8.308;2023-02-16T03:32:29;5.20;;;4.80;;
37657;SDS011;23500;53.268;8.308;2023-02-16T03:34:55;5.88;;;5.38;;
37657;SDS011;23500;53.268;8.308;2023-02-16T03:37:21;5.20;;;4.70;;
37657;SDS011;23500;53.268;8.308;2023-02-16T03:39:47;5.50;;;5.00;;
37657;SDS011;23500;53.268;8.308;2023-02-16T03:42:32;5.55;;;5.05;;
37657;SDS011;23500;53.268;8.308;2023-02-16T03:44:58;5.28;;;4.80;;
37657;SDS011;23500;53.268;8.308;2023-02-16T03:47:24;5.60;;;5.10;;
37657;SDS011;23500;53.268;8.308;2023-02-16T03:49:50;5.93;;;5.43;;
37657;SDS011;23500;53.268;8.308;2023-02-16T03:52:15;5.23;;;4.83;;
37657;SDS011;23500;53.268;8.308;2023-02-16T03:54:41;5.50;;;5.00;;
37657;SDS011;23500;53.268;8.308;2023-02-16T03:57:07;5.50;;;5.00;;
37657;SDS011;23500;53.268;8.308;2023-02-16T03:59:32;5.60;;;5.10;;
37657;SDS011;23500;53.268;8.308;2023-02-16T04:01:58;5.65;;;5.15;;
37657;SDS011;23500;53.268;8.308;2023-02-16T04:04:23;5.60;;;5.10;;
37657;SDS011;23500;53.268;8.308;2023-02-16T04:06:49;5.35;;;4.93;;
37657;SDS011;23500;53.268;8.308;2023-02-16T04:09:15;5.47;;;4.97;;
37657;SDS011;23500;53.268;8.308;2023-02-16T04:11:40;5.13;;;4.63;;
37657;SDS011;23500;53.268;8.308;2023-02-16T04:14:24;5.23;;;4.73;;
37657;SDS011;23500;53.268;8.308;2023-02-16T04:16:50;5.43;;;5.03;;
37657;SDS011;23500;53.268;8.308;2023-02-16T04:19:16;5.50;;;5.00;;
37657;SDS011;23500;53.268;8.308;2023-02-16T04:21:41;5.23;;;4.73;;
37657;SDS011;23500;53.268;8.308;2023-02-16T04:24:07;5.13;;;4.63;;
37657;SDS011;23500;53.268;8.308;2023-02-16T04:26:33;5.25;;;4.75;;
37657;SDS011;23500;53.268;8.308;2023-02-16T04:28:59;5.32;;;4.82;;
37657;SDS011;23500;53.268;8.308;2023-02-16T04:31:24;5.43;;;4.93;;
37657;SDS011;23500;53.268;8.308;2023-02-16T04:33:50;5.50;;;5.07;;
37657;SDS011;23500;53.268;8.308;2023-02-16T04:36:16;5.00;;;4.60;;
37657;SDS011;23500;53.268;8.308;2023-02-16T04:38:41;5.23;;;4.73;;
37657;SDS011;23500;53.268;8.308;2023-02-16T04:41:07;5.20;;;4.70;;
37657;SDS011;23500;53.268;8.308;2023-02-16T04:43:33;4.65;;;4.35;;
37657;SDS011;23500;53.268;8.308;2023-02-16T04:45:59;4.97;;;4.57;;
37657;SDS011;23500;53.268;8.308;2023-02-16T04:48:24;5.05;;;4.65;;
37657;SDS011;23500;53.268;8.308;2023-02-16T04:50:50;4.93;;;4.43;;
37657;SDS011;23500;53.268;8.308;2023-02-16T04:53:16;4.65;;;4.25;;
37657;SDS011;23500;53.268;8.308;2023-02-16T04:55:48;4.57;;;4.18;;
37657;SDS011;23500;53.268;8.308;2023-02-16T04:58:14;4.45;;;4.05;;
37657;SDS011;23500;53.268;8.308;2023-02-16T05:00:41;4.38;;;4.07;;
37657;SDS011;23500;53.268;8.308;2023-02-16T05:03:07;4.40;;;4.10;;
37657;SDS011;23500;53.268;8.308;2023-02-16T05:05:33;4.80;;;4.20;;
37657;SDS011;23500;53.268;8.308;2023-02-16T05:07:59;4.20;;;3.90;;
37657;SDS011;23500;53.268;8.308;2023-02-16T05:10:26;4.68;;;4.28;;
37657;SDS011;23500;53.268;8.308;2023-02-16T05:12:52;3.97;;;3.67;;
37657;SDS011;23500;53.268;8.308;2023-02-16T05:15:36;3.72;;;3.45;;
37657;SDS011;23500;53.268;8.308;2023-02-16T05:18:02;4.78;;;4.38;;
37657;SDS011;23500;53.268;8.308;2023-02-16T05:20:27;4.32;;;4.03;;
37657;SDS011;23500;53.268;8.308;2023-02-16T05:23:12;4.45;;;4.15;;
37657;SDS011;23500;53.268;8.308;2023-02-16T05:25:37;4.55;;;4.15;;
37657;SDS011;23500;53.268;8.308;2023-02-16T05:28:03;4.90;;;4.50;;
37657;SDS011;23500;53.268;8.308;2023-02-16T05:30:29;4.50;;;4.20;;
37657;SDS011;23500;53.268;8.308;2023-02-16T05:32:55;4.97;;;4.57;;
37657;SDS011;23500;53.268;8.308;2023-02-16T05:35:20;4.40;;;4.10;;
37657;SDS011;23500;53.268;8.308;2023-02-16T05:37:46;4.75;;;4.35;;
37657;SDS011;23500;53.268;8.308;2023-02-16T05:40:12;4.97;;;4.57;;
37657;SDS011;23500;53.268;8.308;2023-02-16T05:42:38;4.97;;;4.55;;
37657;SDS011;23500;53.268;8.308;2023-02-16T05:45:04;4.85;;;4.45;;
37657;SDS011;23500;53.268;8.308;2023-02-16T05:47:29;4.95;;;4.55;;
37657;SDS011;23500;53.268;8.308;2023-02-16T05:49:55;5.55;;;5.05;;
37657;SDS011;23500;53.268;8.308;2023-02-16T05:52:21;5.28;;;4.82;;
37657;SDS011;23500;53.268;8.308;2023-02-16T05:54:46;5.90;;;5.40;;
37657;SDS011;23500;53.268;8.308;2023-02-16T05:57:12;5.70;;;5.20;;
37657;SDS011;23500;53.268;8.308;2023-02-16T05:59:38;5.75;;;5.25;;
37657;SDS011;23500;53.268;8.308;2023-02-16T06:02:03;9.93;;;8.23;;
37657;SDS011;23500;53.268;8.308;2023-02-16T06:04:29;10.07;;;9.07;;
37657;SDS011;23500;53.268;8.308;2023-02-16T06:06:56;9.85;;;8.85;;
37657;SDS011;23500;53.268;8.308;2023-02-16T06:09:22;10.32;;;8.82;;
37657;SDS011;23500;53.268;8.308;2023-02-16T06:11:48;9.95;;;8.27;;
37657;SDS011;23500;53.268;8.308;2023-02-16T06:14:17;9.70;;;8.15;;
37657;SDS011;23500;53.268;8.308;2023-02-16T06:16:46;6.80;;;6.10;;
37657;SDS011;23500;53.268;8.308;2023-02-16T06:19:13;6.75;;;6.05;;
37657;SDS011;23500;53.268;8.308;2023-02-16T06:21:40;8.13;;;5.93;;
37657;SDS011;23500;53.268;8.308;2023-02-16T06:24:06;8.38;;;6.50;;
37657;SDS011;23500;53.268;8.308;2023-02-16T06:26:33;6.97;;;6.28;;
37657;SDS011;23500;53.268;8.308;2023-02-16T06:28:59;7.00;;;6.30;;
37657;SDS011;23500;53.268;8.308;2023-02-16T06:31:25;8.15;;;6.32;;
37657;SDS011;23500;53.268;8.308;2023-02-16T06:33:51;7.13;;;5.32;;
37657;SDS011;23500;53.268;8.308;2023-02-16T06:36:17;7.65;;;5.63;;
37657;SDS011;23500;53.268;8.308;2023-02-16T06:38:43;9.65;;;6.70;;
37657;SDS011;23500;53.268;8.308;2023-02-16T06:41:10;7.63;;;5.38;;
37657;SDS011;23500;53.268;8.308;2023-02-16T06:43:36;7.00;;;5.45;;
37657;SDS011;23500;53.268;8.308;2023-02-16T06:46:02;9.00;;;6.13;;
37657;SDS011;23500;53.268;8.308;2023-02-16T06:48:28;8.95;;;6.18;;
37657;SDS011;23500;53.268;8.308;2023-02-16T06:50:54;9.50;;;6.20;;
37657;SDS011;23500;53.268;8.308;2023-02-16T06:53:19;8.07;;;6.22;;
37657;SDS011;23500;53.268;8.308;2023-02-16T06:55:45;7.07;;;5.65;;
37657;SDS011;23500;53.268;8.308;2023-02-16T06:58:13;9.00;;;6.22;;
37657;SDS011;23500;53.268;8.308;2023-02-16T07:00:39;8.65;;;6.18;;
37657;SDS011;23500;53.268;8.308;2023-02-16T07:03:04;9.98;;;6.10;;
37657;SDS011;23500;53.268;8.308;2023-02-16T07:05:30;9.30;;;5.88;;
37657;SDS011;23500;53.268;8.308;2023-02-16T07:07:56;9.38;;;6.60;;
37657;SDS011;23500;53.268;8.308;2023-02-16T07:10:21;8.30;;;6.25;;
37657;SDS011;23500;53.268;8.308;2023-02-16T07:12:47;8.07;;;6.13;;
37657;SDS011;23500;53.268;8.308;2023-02-16T07:15:13;10.00;;;6.90;;
37657;SDS011;23500;53.268;8.308;2023-02-16T07:17:39;12.43;;;7.55;;
37657;SDS011;23500;53.268;8.308;2023-02-16T07:20:05;10.73;;;8.00;;
37657;SDS011;23500;53.268;8.308;2023-02-16T07:22:31;12.68;;;9.23;;
37657;SDS011;23500;53.268;8.308;2023-02-16T07:24:57;14.25;;;9.85;;
37657;SDS011;23500;53.268;8.308;2023-02-16T07:27:25;10.30;;;7.85;;
37657;SDS011;23500;53.268;8.308;2023-02-16T07:29:51;10.95;;;7.78;;
37657;SDS011;23500;53.268;8.308;2023-02-16T07:32:17;13.43;;;7.60;;
37657;SDS011;23500;53.268;8.308;2023-02-16T07:34:43;13.43;;;8.20;;
37657;SDS011;23500;53.268;8.308;2023-02-16T07:37:09;11.98;;;7.32;;
37657;SDS011;23500;53.268;8.308;2023-02-16T07:39:35;13.50;;;8.93;;
37657;SDS011;23500;53.268;8.308;2023-02-16T07:42:01;10.30;;;6.80;;
37657;SDS011;23500;53.268;8.308;2023-02-16T07:44:27;11.90;;;7.15;;
37657;SDS011;23500;53.268;8.308;2023-02-16T07:46:53;10.38;;;7.35;;
37657;SDS011;23500;53.268;8.308;2023-02-16T07:49:18;9.98;;;7.63;;
37657;SDS011;23500;53.268;8.308;2023-02-16T07:51:44;10.30;;;6.72;;
37657;SDS011;23500;53.268;8.308;2023-02-16T07:54:10;14.15;;;7.63;;
37657;SDS011;23500;53.268;8.308;2023-02-16T07:56:36;12.13;;;6.85;;
37657;SDS011;23500;53.268;8.308;2023-02-16T07:59:02;11.63;;;7.55;;
37657;SDS011;23500;53.268;8.308;2023-02-16T08:01:28;10.77;;;7.05;;
37657;SDS011;23500;53.268;8.308;2023-02-16T08:03:55;10.93;;;7.13;;
37657;SDS011;23500;53.268;8.308;2023-02-16T08:06:21;13.52;;;7.63;;
37657;SDS011;23500;53.268;8.308;2023-02-16T08:08:47;11.27;;;7.68;;
37657;SDS011;23500;53.268;8.308;2023-02-16T08:11:14;13.15;;;7.63;;
37657;SDS011;23500;53.268;8.308;2023-02-16T08:13:41;13.10;;;6.93;;
37657;SDS011;23500;53.268;8.308;2023-02-16T08:16:18;11.60;;;7.07;;
37657;SDS011;23500;53.268;8.308;2023-02-16T08:18:48;14.68;;;7.93;;
37657;SDS011;23500;53.268;8.308;2023-02-16T08:21:18;11.98;;;7.80;;
37657;SDS011;23500;53.268;8.308;2023-02-16T08:23:55;13.52;;;7.40;;
37657;SDS011;23500;53.268;8.308;2023-02-16T08:26:22;11.88;;;7.13;;
37657;SDS011;23500;53.268;8.308;2023-02-16T08:28:49;12.32;;;7.55;;
37657;SDS011;23500;53.268;8.308;2023-02-16T08:31:17;12.48;;;7.68;;
37657;SDS011;23500;53.268;8.308;2023-02-16T08:33:44;10.73;;;6.80;;
37657;SDS011;23500;53.268;8.308;2023-02-16T08:36:17;12.55;;;7.43;;
37657;SDS011;23500;53.268;8.308;2023-02-16T08:38:45;10.43;;;7.70;;
37657;SDS011;23500;53.268;8.308;2023-02-16T08:41:14;11.85;;;6.97;;
37657;SDS011;23500;53.268;8.308;2023-02-16T08:43:40;12.35;;;7.35;;
37657;SDS011;23500;53.268;8.308;2023-02-16T08:46:05;12.45;;;7.60;;
37657;SDS011;23500;53.268;8.308;2023-02-16T08:48:35;12.45;;;8.23;;
37657;SDS011;23500;53.268;8.308;2023-02-16T08:51:01;11.70;;;7.40;;
37657;SDS011;23500;53.268;8.308;2023-02-16T08:53:28;11.25;;;7.18;;
37657;SDS011;23500;53.268;8.308;2023-02-16T08:55:57;11.32;;;7.18;;
37657;SDS011;23500;53.268;8.308;2023-02-16T08:58:23;11.85;;;7.15;;
37657;SDS011;23500;53.268;8.308;2023-02-16T09:00:50;10.70;;;7.22;;
37657;SDS011;23500;53.268;8.308;2023-02-16T09:03:16;11.43;;;7.22;;
37657;SDS011;23500;53.268;8.308;2023-02-16T09:05:45;12.02;;;8.02;;
37657;SDS011;23500;53.268;8.308;2023-02-16T09:08:15;12.85;;;7.10;;
37657;SDS011;23500;53.268;8.308;2023-02-16T09:10:41;13.57;;;7.88;;
37657;SDS011;23500;53.268;8.308;2023-02-16T09:13:07;12.95;;;7.38;;
37657;SDS011;23500;53.268;8.308;2023-02-16T09:15:42;13.45;;;7.68;;
37657;SDS011;23500;53.268;8.308;2023-02-16T09:18:08;11.85;;;7.68;;
37657;SDS011;23500;53.268;8.308;2023-02-16T09:20:36;11.73;;;6.95;;
37657;SDS011;23500;53.268;8.308;2023-02-16T09:23:04;12.90;;;7.32;;
37657;SDS011;23500;53.268;8.308;2023-02-16T09:25:33;11.45;;;6.93;;
37657;SDS011;23500;53.268;8.308;2023-02-16T09:27:59;13.13;;;7.95;;
37657;SDS011;23500;53.268;8.308;2023-02-16T09:30:26;11.73;;;7.13;;
37657;SDS011;23500;53.268;8.308;2023-02-16T09:32:51;11.75;;;7.65;;
37657;SDS011;23500;53.268;8.308;2023-02-16T09:35:18;11.43;;;7.18;;
37657;SDS011;23500;53.268;8.308;2023-02-16T09:37:44;12.30;;;7.38;;
37657;SDS011;23500;53.268;8.308;2023-02-16T09:40:11;13.00;;;7.50;;
37657;SDS011;23500;53.268;8.308;2023-02-16T09:45:22;12.32;;;7.80;;
37657;SDS011;23500;53.268;8.308;2023-02-16T09:47:51;11.80;;;7.38;;
37657;SDS011;23500;53.268;8.308;2023-02-16T09:58:31;11.68;;;7.72;;
37657;SDS011;23500;53.268;8.308;2023-02-16T10:06:40;12.95;;;7.60;;
37657;SDS011;23500;53.268;8.308;2023-02-16T10:09:08;14.23;;;7.78;;
37657;SDS011;23500;53.268;8.308;2023-02-16T10:11:40;13.73;;;7.43;;
37657;SDS011;23500;53.268;8.308;2023-02-16T10:22:12;11.02;;;7.25;;
37657;SDS011;23500;53.268;8.308;2023-02-16T10:25:15;11.68;;;7.55;;
37657;SDS011;23500;53.268;8.308;2023-02-16T10:27:35;10.07;;;6.80;;
37657;SDS011;23500;53.268;8.308;2023-02-16T10:32:36;11.75;;;7.10;;
37657;SDS011;23500;53.268;8.308;2023-02-16T10:35:12;11.95;;;7.82;;
37657;SDS011;23500;53.268;8.308;2023-02-16T10:40:33;13.65;;;7.68;;
37657;SDS011;23500;53.268;8.308;2023-02-16T10:45:50;10.40;;;7.45;;
37657;SDS011;23500;53.268;8.308;2023-02-16T10:48:18;12.68;;;7.57;;
37657;SDS011;23500;53.268;8.308;2023-02-16T10:50:49;12.23;;;7.78;;
37657;SDS011;23500;53.268;8.308;2023-02-16T10:53:34;10.60;;;7.00;;
37657;SDS011;23500;53.268;8.308;2023-02-16T10:58:48;11.65;;;7.20;;
37657;SDS011;23500;53.268;8.308;2023-02-16T11:03:49;11.15;;;7.57;;
37657;SDS011;23500;53.268;8.308;2023-02-16T11:06:18;11.70;;;7.07;;
37657;SDS011;23500;53.268;8.308;2023-02-16T11:08:57;12.70;;;7.78;;
37657;SDS011;23500;53.268;8.308;2023-02-16T11:11:28;11.15;;;7.22;;
37657;SDS011;23500;53.268;8.308;2023-02-16T11:14:17;11.40;;;6.97;;
37657;SDS011;23500;53.268;8.308;2023-02-16T11:16:46;10.30;;;7.10;;
37657;SDS011;23500;53.268;8.308;2023-02-16T11:19:19;9.50;;;6.70;;
37657;SDS011;23500;53.268;8.308;2023-02-16T11:21:49;8.60;;;6.78;;
37657;SDS011;23500;53.268;8.308;2023-02-16T11:24:23;10.23;;;7.18;;
37657;SDS011;23500;53.268;8.308;2023-02-16T11:29:50;9.80;;;7.60;;
37657;SDS011;23500;53.268;8.308;2023-02-16T11:32:46;10.40;;;7.15;;
37657;SDS011;23500;53.268;8.308;2023-02-16T11:35:12;10.52;;;6.88;;
37657;SDS011;23500;53.268;8.308;2023-02-16T11:37:38;12.30;;;7.55;;
37657;SDS011;23500;53.268;8.308;2023-02-16T11:40:06;11.13;;;6.85;;
37657;SDS011;23500;53.268;8.308;2023-02-16T11:42:49;11.23;;;6.63;;
37657;SDS011;23500;53.268;8.308;2023-02-16T11:45:28;12.00;;;6.95;;
37657;SDS011;23500;53.268;8.308;2023-02-16T11:48:00;10.98;;;7.38;;
37657;SDS011;23500;53.268;8.308;2023-02-16T11:50:34;9.55;;;6.78;;
37657;SDS011;23500;53.268;8.308;2023-02-16T11:55:35;9.40;;;7.20;;
37657;SDS011;23500;53.268;8.308;2023-02-16T11:58:21;12.80;;;6.90;;
37657;SDS011;23500;53.268;8.308;2023-02-16T12:10:06;9.85;;;6.47;;
37657;SDS011;23500;53.268;8.308;2023-02-16T12:12:40;10.70;;;8.00;;
37657;SDS011;23500;53.268;8.308;2023-02-16T12:17:49;9.60;;;7.35;;
37657;SDS011;23500;53.268;8.308;2023-02-16T12:25:43;9.57;;;6.70;;
37657;SDS011;23500;53.268;8.308;2023-02-16T12:30:47;11.38;;;6.95;;
37657;SDS011;23500;53.268;8.308;2023-02-16T12:33:31;8.75;;;6.80;;
37657;SDS011;23500;53.268;8.308;2023-02-16T12:41:30;10.07;;;6.80;;
37657;SDS011;23500;53.268;8.308;2023-02-16T12:44:09;9.25;;;7.03;;
37657;SDS011;23500;53.268;8.308;2023-02-16T12:46:45;10.07;;;6.68;;
37657;SDS011;23500;53.268;8.308;2023-02-16T12:49:20;9.88;;;6.65;;
37657;SDS011;23500;53.268;8.308;2023-02-16T12:52:15;9.38;;;6.63;;
37657;SDS011;23500;53.268;8.308;2023-02-16T12:54:54;11.07;;;7.10;;
37657;SDS011;23500;53.268;8.308;2023-02-16T12:57:44;10.40;;;7.07;;
37657;SDS011;23500;53.268;8.308;2023-02-16T13:05:46;8.82;;;6.65;;
37657;SDS011;23500;53.268;8.308;2023-02-16T13:08:24;8.75;;;6.10;;
37657;SDS011;23500;53.268;8.308;2023-02-16T13:11:24;7.32;;;6.00;;
37657;SDS011;23500;53.268;8.308;2023-02-16T13:13:58;7.43;;;6.30;;
37657;SDS011;23500;53.268;8.308;2023-02-16T13:19:03;8.40;;;6.53;;
37657;SDS011;23500;53.268;8.308;2023-02-16T13:35:24;8.65;;;6.07;;
37657;SDS011;23500;53.268;8.308;2023-02-16T13:43:39;7.80;;;5.88;;
37657;SDS011;23500;53.268;8.308;2023-02-16T13:46:10;9.00;;;6.28;;
37657;SDS011;23500;53.268;8.308;2023-02-16T13:48:48;8.80;;;6.20;;
37657;SDS011;23500;53.268;8.308;2023-02-16T13:51:17;7.80;;;5.63;;
37657;SDS011;23500;53.268;8.308;2023-02-16T13:53:51;7.47;;;5.82;;
37657;SDS011;23500;53.268;8.308;2023-02-16T13:56:40;7.35;;;5.65;;
37657;SDS011;23500;53.268;8.308;2023-02-16T14:01:46;7.88;;;5.93;;
37657;SDS011;23500;53.268;8.308;2023-02-16T14:27:58;7.07;;;5.53;;
37657;SDS011;23500;53.268;8.308;2023-02-16T14:33:38;6.07;;;5.40;;
37657;SDS011;23500;53.268;8.308;2023-02-16T14:36:13;7.60;;;5.75;;
37657;SDS011;23500;53.268;8.308;2023-02-16T14:43:47;8.57;;;5.63;;
37657;SDS011;23500;53.268;8.308;2023-02-16T14:54:28;6.65;;;5.43;;
37657;SDS011;23500;53.268;8.308;2023-02-16T15:00:29;5.80;;;5.20;;
37657;SDS011;23500;53.268;8.308;2023-02-16T15:03:02;8.80;;;6.25;;
37657;SDS011;23500;53.268;8.308;2023-02-16T15:05:38;6.82;;;5.97;;
37657;SDS011;23500;53.268;8.308;2023-02-16T15:10:40;8.98;;;7.22;;
37657;SDS011;23500;53.268;8.308;2023-02-16T15:13:10;10.93;;;7.40;;
37657;SDS011;23500;53.268;8.308;2023-02-16T15:15:48;10.63;;;7.88;;
37657;SDS011;23500;53.268;8.308;2023-02-16T15:18:17;10.60;;;7.63;;
37657;SDS011;23500;53.268;8.308;2023-02-16T15:20:47;9.32;;;6.97;;
37657;SDS011;23500;53.268;8.308;2023-02-16T15:23:19;11.77;;;7.50;;
37657;SDS011;23500;53.268;8.308;2023-02-16T15:25:53;12.07;;;7.50;;
37657;SDS011;23500;53.268;8.308;2023-02-16T15:28:49;8.65;;;7.10;;
37657;SDS011;23500;53.268;8.308;2023-02-16T15:31:17;8.70;;;7.30;;
37657;SDS011;23500;53.268;8.308;2023-02-16T15:33:53;10.50;;;7.45;;
37657;SDS011;23500;53.268;8.308;2023-02-16T15:36:29;10.43;;;7.40;;
37657;SDS011;23500;53.268;8.308;2023-02-16T15:39:01;11.65;;;7.78;;
37657;SDS011;23500;53.268;8.308;2023-02-16T15:41:33;9.40;;;6.85;;
37657;SDS011;23500;53.268;8.308;2023-02-16T15:44:03;10.60;;;7.38;;
37657;SDS011;23500;53.268;8.308;2023-02-16T15:46:34;9.60;;;6.75;;
37657;SDS011;23500;53.268;8.308;2023-02-16T15:49:11;8.18;;;7.30;;
37657;SDS011;23500;53.268;8.308;2023-02-16T15:51:37;9.40;;;7.10;;
37657;SDS011;23500;53.268;8.308;2023-02-16T15:54:06;11.25;;;7.53;;
37657;SDS011;23500;53.268;8.308;2023-02-16T15:56:47;9.82;;;7.45;;
37657;SDS011;23500;53.268;8.308;2023-02-16T16:01:58;9.45;;;7.50;;
37657;SDS011;23500;53.268;8.308;2023-02-16T16:04:26;9.65;;;7.80;;
37657;SDS011;23500;53.268;8.308;2023-02-16T16:06:54;8.48;;;7.43;;
37657;SDS011;23500;53.268;8.308;2023-02-16T16:09:24;9.95;;;7.63;;
37657;SDS011;23500;53.268;8.308;2023-02-16T16:11:53;8.15;;;6.93;;
37657;SDS011;23500;53.268;8.308;2023-02-16T16:14:21;8.00;;;7.20;;
37657;SDS011;23500;53.268;8.308;2023-02-16T16:16:48;8.00;;;7.07;;
37657;SDS011;23500;53.268;8.308;2023-02-16T16:19:19;9.50;;;7.80;;
37657;SDS011;23500;53.268;8.308;2023-02-16T16:21:52;9.38;;;8.15;;
37657;SDS011;23500;53.268;8.308;2023-02-16T16:24:37;9.75;;;7.93;;
37657;SDS011;23500;53.268;8.308;2023-02-16T16:27:08;9.27;;;7.78;;
37657;SDS011;23500;53.268;8.308;2023-02-16T16:32:42;8.90;;;7.80;;
37657;SDS011;23500;53.268;8.308;2023-02-16T16:35:01;8.95;;;7.43;;
37657;SDS011;23500;53.268;8.308;2023-02-16T16:37:42;8.45;;;7.63;;
37657;SDS011;23500;53.268;8.308;2023-02-16T16:43:03;8.20;;;7.40;;
37657;SDS011;23500;53.268;8.308;2023-02-16T16:45:41;9.02;;;7.68;;
37657;SDS011;23500;53.268;8.308;2023-02-16T16:48:17;9.32;;;7.68;;
37657;SDS011;23500;53.268;8.308;2023-02-16T16:50:49;8.23;;;7.40;;
37657;SDS011;23500;53.268;8.308;2023-02-16T16:53:56;8.25;;;7.45;;
37657;SDS011;23500;53.268;8.308;2023-02-16T16:56:27;8.35;;;7.50;;
37657;SDS011;23500;53.268;8.308;2023-02-16T16:58:53;8.50;;;7.22;;
37657;SDS011;23500;53.268;8.308;2023-02-16T17:01:22;8.00;;;7.20;;
37657;SDS011;23500;53.268;8.308;2023-02-16T17:03:49;8.45;;;7.65;;
37657;SDS011;23500;53.268;8.308;2023-02-16T17:06:15;8.20;;;7.40;;
37657;SDS011;23500;53.268;8.308;2023-02-16T17:08:42;8.35;;;7.45;;
37657;SDS011;23500;53.268;8.308;2023-02-16T17:11:12;8.15;;;7.30;;
37657;SDS011;23500;53.268;8.308;2023-02-16T17:13:48;8.05;;;7.25;;
37657;SDS011;23500;53.268;8.308;2023-02-16T17:16:18;8.57;;;7.78;;
37657;SDS011;23500;53.268;8.308;2023-02-16T17:18:50;9.68;;;8.40;;
37657;SDS011;23500;53.268;8.308;2023-02-16T17:21:15;9.10;;;8.20;;
37657;SDS011;23500;53.268;8.308;2023-02-16T17:23:41;8.40;;;7.60;;
37657;SDS011;23500;53.268;8.308;2023-02-16T17:26:07;8.70;;;7.80;;
37657;SDS011;23500;53.268;8.308;2023-02-16T17:28:33;8.43;;;7.63;;
37657;SDS011;23500;53.268;8.308;2023-02-16T17:31:03;8.13;;;7.38;;
37657;SDS011;23500;53.268;8.308;2023-02-16T17:33:31;8.82;;;7.93;;
37657;SDS011;23500;53.268;8.308;2023-02-16T17:35:57;8.68;;;7.88;;
37657;SDS011;23500;53.268;8.308;2023-02-16T17:38:25;7.90;;;7.10;;
37657;SDS011;23500;53.268;8.308;2023-02-16T17:40:52;8.88;;;7.97;;
37657;SDS011;23500;53.268;8.308;2023-02-16T17:43:19;9.25;;;7.90;;
37657;SDS011;23500;53.268;8.308;2023-02-16T17:45:46;9.52;;;8.55;;
37657;SDS011;23500;53.268;8.308;2023-02-16T17:48:23;9.10;;;8.20;;
37657;SDS011;23500;53.268;8.308;2023-02-16T17:50:51;8.63;;;7.82;;
37657;SDS011;23500;53.268;8.308;2023-02-16T17:53:21;9.10;;;8.30;;
37657;SDS011;23500;53.268;8.308;2023-02-16T17:55:49;8.48;;;7.68;;
37657;SDS011;23500;53.268;8.308;2023-02-16T17:58:17;8.45;;;7.65;;
37657;SDS011;23500;53.268;8.308;2023-02-16T18:00:44;9.00;;;8.15;;
37657;SDS011;23500;53.268;8.308;2023-02-16T18:03:10;9.07;;;8.18;;
37657;SDS011;23500;53.268;8.308;2023-02-16T18:05:36;9.05;;;8.15;;
37657;SDS011;23500;53.268;8.308;2023-02-16T18:08:02;9.45;;;8.55;;
37657;SDS011;23500;53.268;8.308;2023-02-16T18:10:50;9.48;;;8.57;;
37657;SDS011;23500;53.268;8.308;2023-02-16T18:13:16;8.82;;;7.93;;
37657;SDS011;23500;53.268;8.308;2023-02-16T18:15:43;10.05;;;9.00;;